KHWY Airport Information

Runway Information
Runway 15 Length 5000 ft width 100 ft
Elevation 313 ft Threshold 0 ft Heading 139
Runway 33 Length 5000 ft Width 100 ft
Elevation 336 ft Threshold 0 ft Heading 319
Airport Frequencies
Type A/D Name POTOMAC AP Frequency 124.65 MHZ
Type UNIC Name CTAF/UNICO Frequency 122.7 MHZ
Airport Navaids
Airport Weather Information & NOTAM
ADDS - METARS form results

(0151 UTC 16 January 2021)
Data provider http://aviationweather.gov/metar/data/
 
METAR text: KHWY 160135Z AUTO 00000KT 3SM BR OVC019 06/05 A2969 RMK AO2 T00620048
Conditions at: KHWY (WARRENTON , VA, US) observed 0135 UTC 16 January 2021
Temperature: 6.2°C (43°F)
Dewpoint: 4.8°C (41°F) [RH = 91%]
Pressure (altimeter): 29.69 inches Hg (1005.5 mb)
Winds: calm
Visibility: 3 miles ( 5 km)
Ceiling: 1900 feet AGL
Clouds: overcast cloud deck at 1900 feet AGL
Weather: BR  (mist)

METAR text: KHWY 160115Z AUTO 00000KT 4SM BR BKN021 OVC028 06/05 A2969 RMK AO2 LTG DSNT NE T00610047
Conditions at: KHWY (WARRENTON , VA, US) observed 0115 UTC 16 January 2021
Temperature: 6.1°C (43°F)
Dewpoint: 4.7°C (40°F) [RH = 91%]
Pressure (altimeter): 29.69 inches Hg (1005.5 mb)
Winds: calm
Visibility: 4 miles ( 6 km)
Ceiling: 2100 feet AGL
Clouds: broken clouds at 2100 feet AGL
overcast cloud deck at 2800 feet AGL
Weather: BR  (mist)

METAR text: KHWY 160055Z AUTO 00000KT 4SM DZ OVC028 06/05 A2970 RMK AO2 P0002 T00640050
Conditions at: KHWY (WARRENTON , VA, US) observed 0055 UTC 16 January 2021
Temperature: 6.4°C (44°F)
Dewpoint: 5.0°C (41°F) [RH = 91%]
Pressure (altimeter): 29.70 inches Hg (1005.8 mb)
Winds: calm
Visibility: 4 miles ( 6 km)
Ceiling: 2800 feet AGL
Clouds: overcast cloud deck at 2800 feet AGL
Weather: DZ  (moderate drizzle)